Date,TemperatureHighF,TemperatureAvgF,TemperatureLowF,DewpointHighF,DewpointAvgF,DewpointLowF,HumidityHigh,HumidityAvg,HumidityLow,PressureMaxIn,PressureMinIn,WindSpeedMaxMPH,WindSpeedAvgMPH,GustSpeedMaxMPH,PrecipitationSumIn
2013-2-1,47.0,32.4,20.0,26.4,23.2,20.0,100,73,39,30.34,30.22,19,4,19,0.00
2013-2-2,46.0,32.8,21.0,27.2,23.6,20.3,99,72,37,30.42,30.34,11,3,11,0.00
2013-2-3,42.0,32.1,24.0,29.2,26.2,24.0,100,81,52,30.36,30.11,13,4,14,0.00
2013-2-4,43.0,31.0,22.0,30.0,26.2,22.0,100,84,55,30.22,30.11,12,3,12,0.00
2013-2-5,51.0,34.3,22.0,27.0,24.1,18.0,100,72,28,30.20,30.04,11,3,11,0.00
2013-2-6,54.0,35.9,23.0,26.8,24.3,19.8,100,68,28,30.10,29.96,15,4,15,0.00
2013-2-7,49.0,34.8,22.0,26.4,21.7,14.7,100,65,26,30.22,30.10,14,4,14,0.00
2013-2-8,58.0,41.8,28.0,22.7,13.7,-5.9,79,38,8,30.13,29.75,36,9,36,0.00
2013-2-9,64.0,28.8,24.0,28.5,21.4,10.4,100,76,36,29.90,24.28,29,6,29,1.46
2013-2-10,93.0,28.0,24.0,66.7,24.0,18.2,100,86,52,30.00,29.89,87,4,87,0.06
2013-2-11,36.0,26.5,18.0,25.5,18.6,12.4,100,75,42,30.10,30.00,15,4,16,0.03
2013-2-12,36.0,22.5,8.0,16.8,12.9,8.0,100,70,37,30.22,30.10,22,5,22,0.00
2013-2-13,41.0,26.9,13.0,19.0,15.3,11.3,100,65,36,30.24,30.11,25,5,25,0.00
2013-2-14,46.0,31.0,16.0,21.0,17.9,14.7,100,63,28,30.26,30.12,29,5,29,0.00
2013-2-15,47.0,32.4,17.0,19.4,13.0,-0.6,99,52,15,30.38,30.26,31,7,31,0.00
2013-2-16,51.0,33.5,18.0,18.2,13.2,7.4,90,49,19,30.44,30.20,19,4,19,0.00
2013-2-17,56.0,36.0,20.0,20.0,13.1,3.2,92,49,12,30.21,29.80,17,5,17,0.00
2013-2-18,43.0,32.2,20.0,17.1,3.3,-12.8,69,32,10,30.15,29.90,27,7,27,0.00
2013-2-19,54.0,34.4,17.0,13.1,6.4,-3.0,83,39,10,30.15,29.78,25,6,25,0.00
2013-2-20,63.0,32.3,23.0,36.0,25.4,10.1,100,79,35,29.80,29.67,19,5,19,0.05
2013-2-21,42.0,31.0,21.0,30.8,23.2,17.8,100,76,39,29.95,29.76,18,5,25,0.00
2013-2-22,37.0,28.5,22.0,26.7,19.7,11.3,100,72,37,30.11,29.95,31,7,31,0.00
2013-2-23,42.0,28.2,15.0,29.7,14.0,6.8,100,60,27,30.11,29.79,27,7,27,0.00
2013-2-24,36.0,25.6,15.0,24.8,12.9,4.4,98,63,27,30.00,29.84,23,7,23,0.00
2013-2-25,43.0,28.6,13.0,16.2,10.7,4.0,100,54,21,30.14,29.99,28,6,28,0.00
2013-2-26,38.0,27.6,17.0,16.3,8.9,-7.5,92,50,16,30.15,29.96,37,9,37,0.00
2013-2-27,42.0,27.1,13.0,11.9,6.5,-2.6,91,48,16,30.30,30.15,15,4,15,0.00
2013-2-28,47.0,30.6,14.0,12.4,7.2,0.9,93,43,15,30.36,30.24,31,6,31,0.00